sensor_id;sensor_type;location;lat;lon;timestamp;temperature;humidity
2995;DHT22;35277;49.890;8.222;2022-10-22T00:01:32;22.60;83.70
2995;DHT22;35277;49.890;8.222;2022-10-22T00:04:00;22.60;83.70
2995;DHT22;35277;49.890;8.222;2022-10-22T00:06:29;22.60;83.70
2995;DHT22;35277;49.890;8.222;2022-10-22T00:08:57;22.60;83.70
2995;DHT22;35277;49.890;8.222;2022-10-22T00:11:25;22.60;83.70
2995;DHT22;35277;49.890;8.222;2022-10-22T00:13:52;22.60;83.60
2995;DHT22;35277;49.890;8.222;2022-10-22T00:16:20;22.60;83.60
2995;DHT22;35277;49.890;8.222;2022-10-22T00:18:48;22.60;83.60
2995;DHT22;35277;49.890;8.222;2022-10-22T00:21:16;22.60;83.60
2995;DHT22;35277;49.890;8.222;2022-10-22T00:23:45;22.60;83.60
2995;DHT22;35277;49.890;8.222;2022-10-22T00:26:13;22.60;83.60
2995;DHT22;35277;49.890;8.222;2022-10-22T00:28:41;22.60;83.60
2995;DHT22;35277;49.890;8.222;2022-10-22T00:31:08;22.60;83.50
2995;DHT22;35277;49.890;8.222;2022-10-22T00:33:37;22.60;83.60
2995;DHT22;35277;49.890;8.222;2022-10-22T00:36:05;22.60;83.50
2995;DHT22;35277;49.890;8.222;2022-10-22T00:38:34;22.60;83.50
2995;DHT22;35277;49.890;8.222;2022-10-22T00:41:03;22.60;83.50
2995;DHT22;35277;49.890;8.222;2022-10-22T00:43:31;22.60;83.50
2995;DHT22;35277;49.890;8.222;2022-10-22T00:45:59;22.60;83.50
2995;DHT22;35277;49.890;8.222;2022-10-22T00:48:28;22.60;83.50
2995;DHT22;35277;49.890;8.222;2022-10-22T00:50:59;22.60;83.50
2995;DHT22;35277;49.890;8.222;2022-10-22T00:53:30;22.60;83.50
2995;DHT22;35277;49.890;8.222;2022-10-22T00:55:59;22.60;83.50
2995;DHT22;35277;49.890;8.222;2022-10-22T00:58:31;22.60;83.50
2995;DHT22;35277;49.890;8.222;2022-10-22T01:01:01;22.60;83.50
2995;DHT22;35277;49.890;8.222;2022-10-22T01:03:30;22.50;83.40
2995;DHT22;35277;49.890;8.222;2022-10-22T01:06:00;22.60;83.50
2995;DHT22;35277;49.890;8.222;2022-10-22T01:08:37;22.60;83.50
2995;DHT22;35277;49.890;8.222;2022-10-22T01:11:16;22.60;83.50
2995;DHT22;35277;49.890;8.222;2022-10-22T01:13:56;22.50;83.40
2995;DHT22;35277;49.890;8.222;2022-10-22T01:16:31;22.50;83.40
2995;DHT22;35277;49.890;8.222;2022-10-22T01:19:11;22.60;83.50
2995;DHT22;35277;49.890;8.222;2022-10-22T01:21:44;22.60;83.50
2995;DHT22;35277;49.890;8.222;2022-10-22T01:24:32;22.50;83.40
2995;DHT22;35277;49.890;8.222;2022-10-22T01:27:29;22.60;83.50
2995;DHT22;35277;49.890;8.222;2022-10-22T01:30:01;22.60;83.50
2995;DHT22;35277;49.890;8.222;2022-10-22T01:32:33;22.50;83.40
2995;DHT22;35277;49.890;8.222;2022-10-22T01:35:06;22.50;83.40
2995;DHT22;35277;49.890;8.222;2022-10-22T01:37:38;22.50;83.30
2995;DHT22;35277;49.890;8.222;2022-10-22T01:40:09;22.50;83.40
2995;DHT22;35277;49.890;8.222;2022-10-22T01:42:37;22.50;83.30
2995;DHT22;35277;49.890;8.222;2022-10-22T01:45:12;22.50;83.40
2995;DHT22;35277;49.890;8.222;2022-10-22T01:47:47;22.50;83.30
2995;DHT22;35277;49.890;8.222;2022-10-22T01:50:45;22.50;83.30
2995;DHT22;35277;49.890;8.222;2022-10-22T01:53:22;22.50;83.30
2995;DHT22;35277;49.890;8.222;2022-10-22T01:55:59;22.50;83.30
2995;DHT22;35277;49.890;8.222;2022-10-22T01:58:37;22.50;83.30
2995;DHT22;35277;49.890;8.222;2022-10-22T02:01:14;22.50;83.40
2995;DHT22;35277;49.890;8.222;2022-10-22T02:03:48;22.50;83.30
2995;DHT22;35277;49.890;8.222;2022-10-22T02:06:20;22.50;83.30
2995;DHT22;35277;49.890;8.222;2022-10-22T02:08:49;22.50;83.30
2995;DHT22;35277;49.890;8.222;2022-10-22T02:11:18;22.50;83.30
2995;DHT22;35277;49.890;8.222;2022-10-22T02:13:48;22.50;83.30
2995;DHT22;35277;49.890;8.222;2022-10-22T02:16:22;22.50;83.30
2995;DHT22;35277;49.890;8.222;2022-10-22T02:18:53;22.50;83.30
2995;DHT22;35277;49.890;8.222;2022-10-22T02:21:22;22.50;83.20
2995;DHT22;35277;49.890;8.222;2022-10-22T02:23:50;22.50;83.20
2995;DHT22;35277;49.890;8.222;2022-10-22T02:26:20;22.50;83.20
2995;DHT22;35277;49.890;8.222;2022-10-22T02:28:55;22.50;83.20
2995;DHT22;35277;49.890;8.222;2022-10-22T02:31:27;22.50;83.20
2995;DHT22;35277;49.890;8.222;2022-10-22T02:33:58;22.50;83.20
2995;DHT22;35277;49.890;8.222;2022-10-22T02:36:28;22.50;83.20
2995;DHT22;35277;49.890;8.222;2022-10-22T02:38:56;22.50;83.20
2995;DHT22;35277;49.890;8.222;2022-10-22T02:41:25;22.50;83.20
2995;DHT22;35277;49.890;8.222;2022-10-22T02:43:54;22.50;83.10
2995;DHT22;35277;49.890;8.222;2022-10-22T02:46:22;22.50;83.20
2995;DHT22;35277;49.890;8.222;2022-10-22T02:48:52;22.50;83.10
2995;DHT22;35277;49.890;8.222;2022-10-22T02:51:19;22.50;83.10
2995;DHT22;35277;49.890;8.222;2022-10-22T02:53:47;22.50;83.10
2995;DHT22;35277;49.890;8.222;2022-10-22T02:56:16;22.50;83.10
2995;DHT22;35277;49.890;8.222;2022-10-22T02:58:44;22.50;83.10
2995;DHT22;35277;49.890;8.222;2022-10-22T03:01:12;22.50;83.10
2995;DHT22;35277;49.890;8.222;2022-10-22T03:03:42;22.50;83.10
2995;DHT22;35277;49.890;8.222;2022-10-22T03:06:11;22.50;83.10
2995;DHT22;35277;49.890;8.222;2022-10-22T03:08:39;22.50;83.10
2995;DHT22;35277;49.890;8.222;2022-10-22T03:11:07;22.50;83.10
2995;DHT22;35277;49.890;8.222;2022-10-22T03:13:34;22.50;83.10
2995;DHT22;35277;49.890;8.222;2022-10-22T03:16:02;22.50;83.10
2995;DHT22;35277;49.890;8.222;2022-10-22T03:18:30;22.50;83.10
2995;DHT22;35277;49.890;8.222;2022-10-22T03:21:01;22.50;83.10
2995;DHT22;35277;49.890;8.222;2022-10-22T03:23:32;22.50;83.10
2995;DHT22;35277;49.890;8.222;2022-10-22T03:26:00;22.50;83.20
2995;DHT22;35277;49.890;8.222;2022-10-22T03:28:28;22.50;83.20
2995;DHT22;35277;49.890;8.222;2022-10-22T03:30:56;22.50;83.20
2995;DHT22;35277;49.890;8.222;2022-10-22T03:33:24;22.50;83.20
2995;DHT22;35277;49.890;8.222;2022-10-22T03:35:51;22.50;83.20
2995;DHT22;35277;49.890;8.222;2022-10-22T03:38:19;22.50;83.20
2995;DHT22;35277;49.890;8.222;2022-10-22T03:40:48;22.50;83.20
2995;DHT22;35277;49.890;8.222;2022-10-22T03:43:16;22.50;83.20
2995;DHT22;35277;49.890;8.222;2022-10-22T03:45:44;22.50;83.20
2995;DHT22;35277;49.890;8.222;2022-10-22T03:48:12;22.50;83.20
2995;DHT22;35277;49.890;8.222;2022-10-22T03:50:40;22.50;83.20
2995;DHT22;35277;49.890;8.222;2022-10-22T03:53:08;22.50;83.10
2995;DHT22;35277;49.890;8.222;2022-10-22T03:55:36;22.50;83.10
2995;DHT22;35277;49.890;8.222;2022-10-22T03:58:06;22.50;83.10
2995;DHT22;35277;49.890;8.222;2022-10-22T04:00:34;22.50;83.20
2995;DHT22;35277;49.890;8.222;2022-10-22T04:03:03;22.50;83.10
2995;DHT22;35277;49.890;8.222;2022-10-22T04:05:31;22.50;83.10
2995;DHT22;35277;49.890;8.222;2022-10-22T04:07:59;22.50;84.00
2995;DHT22;35277;49.890;8.222;2022-10-22T04:10:27;22.50;83.10
2995;DHT22;35277;49.890;8.222;2022-10-22T04:12:54;22.50;83.10
2995;DHT22;35277;49.890;8.222;2022-10-22T04:15:23;22.50;83.10
2995;DHT22;35277;49.890;8.222;2022-10-22T04:17:53;22.50;83.10
2995;DHT22;35277;49.890;8.222;2022-10-22T04:20:21;22.50;83.10
2995;DHT22;35277;49.890;8.222;2022-10-22T04:22:49;22.50;83.10
2995;DHT22;35277;49.890;8.222;2022-10-22T04:25:17;22.50;83.10
2995;DHT22;35277;49.890;8.222;2022-10-22T04:27:44;22.50;83.10
2995;DHT22;35277;49.890;8.222;2022-10-22T04:30:13;22.50;83.10
2995;DHT22;35277;49.890;8.222;2022-10-22T04:32:42;22.50;83.10
2995;DHT22;35277;49.890;8.222;2022-10-22T04:35:09;22.50;83.00
2995;DHT22;35277;49.890;8.222;2022-10-22T04:37:37;22.50;83.00
2995;DHT22;35277;49.890;8.222;2022-10-22T04:40:07;22.50;83.00
2995;DHT22;35277;49.890;8.222;2022-10-22T04:42:34;22.50;83.00
2995;DHT22;35277;49.890;8.222;2022-10-22T04:45:03;22.50;83.00
2995;DHT22;35277;49.890;8.222;2022-10-22T04:47:30;22.50;83.00
2995;DHT22;35277;49.890;8.222;2022-10-22T04:50:00;22.50;82.90
2995;DHT22;35277;49.890;8.222;2022-10-22T04:52:27;22.50;82.90
2995;DHT22;35277;49.890;8.222;2022-10-22T04:54:55;22.50;82.90
2995;DHT22;35277;49.890;8.222;2022-10-22T04:57:23;22.50;82.90
2995;DHT22;35277;49.890;8.222;2022-10-22T04:59:51;22.50;82.90
2995;DHT22;35277;49.890;8.222;2022-10-22T05:02:19;22.50;82.90
2995;DHT22;35277;49.890;8.222;2022-10-22T05:04:46;22.50;82.90
2995;DHT22;35277;49.890;8.222;2022-10-22T05:07:16;22.50;83.00
2995;DHT22;35277;49.890;8.222;2022-10-22T05:09:43;22.50;82.90
2995;DHT22;35277;49.890;8.222;2022-10-22T05:12:11;22.50;82.90
2995;DHT22;35277;49.890;8.222;2022-10-22T05:14:39;22.50;82.90
2995;DHT22;35277;49.890;8.222;2022-10-22T05:17:10;22.50;82.90
2995;DHT22;35277;49.890;8.222;2022-10-22T05:19:38;22.50;82.90
2995;DHT22;35277;49.890;8.222;2022-10-22T05:22:06;22.50;82.90
2995;DHT22;35277;49.890;8.222;2022-10-22T05:24:35;22.50;82.90
2995;DHT22;35277;49.890;8.222;2022-10-22T05:27:03;22.50;82.90
2995;DHT22;35277;49.890;8.222;2022-10-22T05:29:31;22.50;82.90
2995;DHT22;35277;49.890;8.222;2022-10-22T05:31:58;22.50;82.90
2995;DHT22;35277;49.890;8.222;2022-10-22T05:34:26;22.50;82.90
2995;DHT22;35277;49.890;8.222;2022-10-22T05:36:54;22.50;82.80
2995;DHT22;35277;49.890;8.222;2022-10-22T05:39:22;22.50;82.80
2995;DHT22;35277;49.890;8.222;2022-10-22T05:41:51;22.50;82.80
2995;DHT22;35277;49.890;8.222;2022-10-22T05:44:19;22.50;82.80
2995;DHT22;35277;49.890;8.222;2022-10-22T05:46:47;22.50;82.80
2995;DHT22;35277;49.890;8.222;2022-10-22T05:49:15;22.50;82.70
2995;DHT22;35277;49.890;8.222;2022-10-22T05:51:42;22.50;82.70
2995;DHT22;35277;49.890;8.222;2022-10-22T05:54:14;22.50;82.70
2995;DHT22;35277;49.890;8.222;2022-10-22T05:56:42;22.50;82.70
2995;DHT22;35277;49.890;8.222;2022-10-22T05:59:11;22.50;82.70
2995;DHT22;35277;49.890;8.222;2022-10-22T06:01:40;22.50;83.50
2995;DHT22;35277;49.890;8.222;2022-10-22T06:04:10;22.50;82.70
2995;DHT22;35277;49.890;8.222;2022-10-22T06:06:39;22.50;82.70
2995;DHT22;35277;49.890;8.222;2022-10-22T06:09:13;22.50;82.60
2995;DHT22;35277;49.890;8.222;2022-10-22T06:11:42;22.50;82.60
2995;DHT22;35277;49.890;8.222;2022-10-22T06:14:12;22.50;82.60
2995;DHT22;35277;49.890;8.222;2022-10-22T06:16:40;22.40;82.50
2995;DHT22;35277;49.890;8.222;2022-10-22T06:19:09;22.40;82.50
2995;DHT22;35277;49.890;8.222;2022-10-22T06:21:38;22.50;82.60
2995;DHT22;35277;49.890;8.222;2022-10-22T06:24:06;22.40;82.50
2995;DHT22;35277;49.890;8.222;2022-10-22T06:26:34;22.40;82.50
2995;DHT22;35277;49.890;8.222;2022-10-22T06:29:02;22.40;82.40
2995;DHT22;35277;49.890;8.222;2022-10-22T06:31:31;22.40;82.40
2995;DHT22;35277;49.890;8.222;2022-10-22T06:34:03;22.40;82.50
2995;DHT22;35277;49.890;8.222;2022-10-22T06:36:31;22.40;82.40
2995;DHT22;35277;49.890;8.222;2022-10-22T06:38:59;22.50;82.50
2995;DHT22;35277;49.890;8.222;2022-10-22T06:41:26;22.40;82.40
2995;DHT22;35277;49.890;8.222;2022-10-22T06:43:56;22.40;82.40
2995;DHT22;35277;49.890;8.222;2022-10-22T06:46:24;22.50;82.40
2995;DHT22;35277;49.890;8.222;2022-10-22T06:48:57;22.40;82.40
2995;DHT22;35277;49.890;8.222;2022-10-22T06:51:26;22.50;82.40
2995;DHT22;35277;49.890;8.222;2022-10-22T06:53:55;22.50;82.40
2995;DHT22;35277;49.890;8.222;2022-10-22T06:56:25;22.50;82.60
2995;DHT22;35277;49.890;8.222;2022-10-22T06:58:55;22.50;82.90
2995;DHT22;35277;49.890;8.222;2022-10-22T07:01:25;22.50;83.20
2995;DHT22;35277;49.890;8.222;2022-10-22T07:03:55;22.50;83.40
2995;DHT22;35277;49.890;8.222;2022-10-22T07:06:24;22.50;83.50
2995;DHT22;35277;49.890;8.222;2022-10-22T07:08:53;22.50;83.60
2995;DHT22;35277;49.890;8.222;2022-10-22T07:11:23;22.50;83.60
2995;DHT22;35277;49.890;8.222;2022-10-22T07:13:53;22.50;83.60
2995;DHT22;35277;49.890;8.222;2022-10-22T07:16:22;22.50;83.70
2995;DHT22;35277;49.890;8.222;2022-10-22T07:18:59;22.50;83.60
2995;DHT22;35277;49.890;8.222;2022-10-22T07:21:28;22.50;83.60
2995;DHT22;35277;49.890;8.222;2022-10-22T07:23:56;22.60;83.70
2995;DHT22;35277;49.890;8.222;2022-10-22T07:26:25;22.50;83.60
2995;DHT22;35277;49.890;8.222;2022-10-22T07:28:56;22.50;83.60
2995;DHT22;35277;49.890;8.222;2022-10-22T07:31:23;22.60;83.70
2995;DHT22;35277;49.890;8.222;2022-10-22T07:33:51;22.60;83.60
2995;DHT22;35277;49.890;8.222;2022-10-22T07:36:20;22.60;83.60
2995;DHT22;35277;49.890;8.222;2022-10-22T07:38:53;22.60;83.60
2995;DHT22;35277;49.890;8.222;2022-10-22T07:41:21;22.60;84.40
2995;DHT22;35277;49.890;8.222;2022-10-22T07:43:49;22.60;83.60
2995;DHT22;35277;49.890;8.222;2022-10-22T07:46:17;22.60;83.50
2995;DHT22;35277;49.890;8.222;2022-10-22T07:48:45;22.60;83.60
2995;DHT22;35277;49.890;8.222;2022-10-22T07:51:12;22.60;83.60
2995;DHT22;35277;49.890;8.222;2022-10-22T07:53:42;22.60;83.60
2995;DHT22;35277;49.890;8.222;2022-10-22T07:56:10;22.60;83.60
2995;DHT22;35277;49.890;8.222;2022-10-22T07:58:38;22.60;83.70
2995;DHT22;35277;49.890;8.222;2022-10-22T08:01:07;22.60;83.70
2995;DHT22;35277;49.890;8.222;2022-10-22T08:03:34;22.60;83.80
2995;DHT22;35277;49.890;8.222;2022-10-22T08:06:03;22.60;83.80
2995;DHT22;35277;49.890;8.222;2022-10-22T08:08:31;22.60;83.90
2995;DHT22;35277;49.890;8.222;2022-10-22T08:11:01;22.60;83.90
2995;DHT22;35277;49.890;8.222;2022-10-22T08:13:29;22.60;84.00
2995;DHT22;35277;49.890;8.222;2022-10-22T08:15:58;22.60;84.00
2995;DHT22;35277;49.890;8.222;2022-10-22T08:18:26;22.70;84.10
2995;DHT22;35277;49.890;8.222;2022-10-22T08:20:54;22.70;84.10
2995;DHT22;35277;49.890;8.222;2022-10-22T08:23:22;22.70;84.10
2995;DHT22;35277;49.890;8.222;2022-10-22T08:25:54;22.70;84.10
2995;DHT22;35277;49.890;8.222;2022-10-22T08:28:23;22.70;84.10
2995;DHT22;35277;49.890;8.222;2022-10-22T08:30:51;22.70;84.10
2995;DHT22;35277;49.890;8.222;2022-10-22T08:33:18;22.70;84.20
2995;DHT22;35277;49.890;8.222;2022-10-22T08:35:47;22.80;84.20
2995;DHT22;35277;49.890;8.222;2022-10-22T08:38:16;22.80;84.40
2995;DHT22;35277;49.890;8.222;2022-10-22T08:40:47;22.80;84.40
2995;DHT22;35277;49.890;8.222;2022-10-22T08:46:41;22.90;84.60
2995;DHT22;35277;49.890;8.222;2022-10-22T08:49:18;22.90;84.50
2995;DHT22;35277;49.890;8.222;2022-10-22T08:51:47;22.90;84.50
2995;DHT22;35277;49.890;8.222;2022-10-22T08:54:26;22.90;84.50
2995;DHT22;35277;49.890;8.222;2022-10-22T08:57:14;23.00;84.60
2995;DHT22;35277;49.890;8.222;2022-10-22T08:59:52;23.00;84.60
2995;DHT22;35277;49.890;8.222;2022-10-22T09:02:29;23.00;84.60
2995;DHT22;35277;49.890;8.222;2022-10-22T09:05:05;23.10;84.70
2995;DHT22;35277;49.890;8.222;2022-10-22T09:07:40;23.10;84.70
2995;DHT22;35277;49.890;8.222;2022-10-22T09:10:10;23.10;84.70
2995;DHT22;35277;49.890;8.222;2022-10-22T09:12:39;23.10;84.70
2995;DHT22;35277;49.890;8.222;2022-10-22T09:15:12;23.20;84.80
2995;DHT22;35277;49.890;8.222;2022-10-22T09:17:49;23.20;84.90
2995;DHT22;35277;49.890;8.222;2022-10-22T09:20:27;23.30;85.00
2995;DHT22;35277;49.890;8.222;2022-10-22T09:23:09;23.30;84.90
2995;DHT22;35277;49.890;8.222;2022-10-22T09:25:44;23.30;84.90
2995;DHT22;35277;49.890;8.222;2022-10-22T09:28:12;23.30;84.90
2995;DHT22;35277;49.890;8.222;2022-10-22T09:30:41;23.30;84.90
2995;DHT22;35277;49.890;8.222;2022-10-22T09:33:13;23.40;85.00
2995;DHT22;35277;49.890;8.222;2022-10-22T09:35:47;23.40;85.00
2995;DHT22;35277;49.890;8.222;2022-10-22T09:38:20;23.40;85.00
2995;DHT22;35277;49.890;8.222;2022-10-22T09:40:52;23.40;85.00
2995;DHT22;35277;49.890;8.222;2022-10-22T09:43:21;23.40;85.10
2995;DHT22;35277;49.890;8.222;2022-10-22T09:45:55;23.40;85.10
2995;DHT22;35277;49.890;8.222;2022-10-22T09:48:28;23.40;85.00
2995;DHT22;35277;49.890;8.222;2022-10-22T09:51:02;23.50;85.10
2995;DHT22;35277;49.890;8.222;2022-10-22T09:53:35;23.50;84.90
2995;DHT22;35277;49.890;8.222;2022-10-22T09:56:07;23.60;85.00
2995;DHT22;35277;49.890;8.222;2022-10-22T09:58:43;23.50;84.90
2995;DHT22;35277;49.890;8.222;2022-10-22T10:01:18;23.50;84.90
2995;DHT22;35277;49.890;8.222;2022-10-22T10:03:47;23.50;84.80
2995;DHT22;35277;49.890;8.222;2022-10-22T10:06:20;23.50;84.80
2995;DHT22;35277;49.890;8.222;2022-10-22T10:08:48;23.50;84.70
2995;DHT22;35277;49.890;8.222;2022-10-22T10:11:24;23.50;84.60
2995;DHT22;35277;49.890;8.222;2022-10-22T10:14:03;23.40;84.40
2995;DHT22;35277;49.890;8.222;2022-10-22T10:16:42;23.40;84.30
2995;DHT22;35277;49.890;8.222;2022-10-22T10:19:29;23.40;84.30
2995;DHT22;35277;49.890;8.222;2022-10-22T10:22:09;23.40;84.30
2995;DHT22;35277;49.890;8.222;2022-10-22T10:24:51;23.30;84.20
2995;DHT22;35277;49.890;8.222;2022-10-22T10:27:26;23.30;84.20
2995;DHT22;35277;49.890;8.222;2022-10-22T10:30:00;23.30;84.20
2995;DHT22;35277;49.890;8.222;2022-10-22T10:32:47;23.30;84.30
2995;DHT22;35277;49.890;8.222;2022-10-22T10:35:24;23.30;84.20
2995;DHT22;35277;49.890;8.222;2022-10-22T10:38:11;23.30;84.20
2995;DHT22;35277;49.890;8.222;2022-10-22T10:40:47;23.30;84.20
2995;DHT22;35277;49.890;8.222;2022-10-22T10:43:19;23.30;84.20
2995;DHT22;35277;49.890;8.222;2022-10-22T10:45:57;23.30;84.20
2995;DHT22;35277;49.890;8.222;2022-10-22T10:48:43;23.30;84.50
2995;DHT22;35277;49.890;8.222;2022-10-22T10:51:27;23.30;84.80
2995;DHT22;35277;49.890;8.222;2022-10-22T10:54:15;23.30;85.10
2995;DHT22;35277;49.890;8.222;2022-10-22T10:56:48;23.30;85.50
2995;DHT22;35277;49.890;8.222;2022-10-22T10:59:25;23.30;85.60
2995;DHT22;35277;49.890;8.222;2022-10-22T11:02:13;23.30;85.70
2995;DHT22;35277;49.890;8.222;2022-10-22T11:05:21;23.30;85.90
2995;DHT22;35277;49.890;8.222;2022-10-22T11:07:55;23.30;86.10
2995;DHT22;35277;49.890;8.222;2022-10-22T11:10:29;23.40;86.20
2995;DHT22;35277;49.890;8.222;2022-10-22T11:13:02;23.40;86.20
2995;DHT22;35277;49.890;8.222;2022-10-22T11:15:34;23.40;86.20
2995;DHT22;35277;49.890;8.222;2022-10-22T11:18:09;23.40;86.20
2995;DHT22;35277;49.890;8.222;2022-10-22T11:20:48;23.40;86.20
2995;DHT22;35277;49.890;8.222;2022-10-22T11:23:23;23.40;86.20
2995;DHT22;35277;49.890;8.222;2022-10-22T11:25:53;23.40;85.80
2995;DHT22;35277;49.890;8.222;2022-10-22T11:28:25;23.30;84.80
2995;DHT22;35277;49.890;8.222;2022-10-22T11:31:00;23.20;84.40
2995;DHT22;35277;49.890;8.222;2022-10-22T11:33:36;23.20;83.90
2995;DHT22;35277;49.890;8.222;2022-10-22T11:36:09;23.20;83.50
2995;DHT22;35277;49.890;8.222;2022-10-22T11:38:37;23.00;82.90
2995;DHT22;35277;49.890;8.222;2022-10-22T11:41:10;23.00;82.90
2995;DHT22;35277;49.890;8.222;2022-10-22T11:43:57;23.00;82.90
2995;DHT22;35277;49.890;8.222;2022-10-22T11:46:37;23.00;83.00
2995;DHT22;35277;49.890;8.222;2022-10-22T11:49:17;23.00;82.90
2995;DHT22;35277;49.890;8.222;2022-10-22T11:51:46;23.00;83.00
2995;DHT22;35277;49.890;8.222;2022-10-22T11:54:38;23.00;82.90
2995;DHT22;35277;49.890;8.222;2022-10-22T11:57:24;23.10;83.00
2995;DHT22;35277;49.890;8.222;2022-10-22T11:59:56;23.10;83.00
2995;DHT22;35277;49.890;8.222;2022-10-22T12:02:39;23.10;83.00
2995;DHT22;35277;49.890;8.222;2022-10-22T12:05:32;23.20;83.10
2995;DHT22;35277;49.890;8.222;2022-10-22T12:08:13;23.20;83.10
2995;DHT22;35277;49.890;8.222;2022-10-22T12:10:54;23.20;83.10
2995;DHT22;35277;49.890;8.222;2022-10-22T12:13:25;23.20;83.20
2995;DHT22;35277;49.890;8.222;2022-10-22T12:15:56;23.20;83.10
2995;DHT22;35277;49.890;8.222;2022-10-22T12:18:26;23.20;83.10
2995;DHT22;35277;49.890;8.222;2022-10-22T12:20:54;23.20;83.10
2995;DHT22;35277;49.890;8.222;2022-10-22T12:23:28;23.30;83.20
2995;DHT22;35277;49.890;8.222;2022-10-22T12:25:56;23.30;83.20
2995;DHT22;35277;49.890;8.222;2022-10-22T12:28:24;23.30;83.20
2995;DHT22;35277;49.890;8.222;2022-10-22T12:30:52;23.30;83.20
2995;DHT22;35277;49.890;8.222;2022-10-22T12:33:21;23.30;83.20
2995;DHT22;35277;49.890;8.222;2022-10-22T12:35:54;23.30;83.20
2995;DHT22;35277;49.890;8.222;2022-10-22T12:38:25;23.30;83.20
2995;DHT22;35277;49.890;8.222;2022-10-22T12:40:54;23.30;83.30
2995;DHT22;35277;49.890;8.222;2022-10-22T12:43:24;23.30;83.30
2995;DHT22;35277;49.890;8.222;2022-10-22T12:45:52;23.30;83.30
2995;DHT22;35277;49.890;8.222;2022-10-22T12:48:22;23.30;83.30
2995;DHT22;35277;49.890;8.222;2022-10-22T12:50:52;23.30;83.30
2995;DHT22;35277;49.890;8.222;2022-10-22T12:53:25;23.30;83.40
2995;DHT22;35277;49.890;8.222;2022-10-22T12:55:55;23.30;83.40
2995;DHT22;35277;49.890;8.222;2022-10-22T12:58:30;23.30;83.30
2995;DHT22;35277;49.890;8.222;2022-10-22T13:01:00;23.30;83.30
2995;DHT22;35277;49.890;8.222;2022-10-22T13:03:31;23.30;83.30
2995;DHT22;35277;49.890;8.222;2022-10-22T13:06:13;23.30;83.30
2995;DHT22;35277;49.890;8.222;2022-10-22T13:09:05;23.40;83.40
2995;DHT22;35277;49.890;8.222;2022-10-22T13:11:38;23.40;83.40
2995;DHT22;35277;49.890;8.222;2022-10-22T13:14:18;23.40;83.30
2995;DHT22;35277;49.890;8.222;2022-10-22T13:17:03;23.40;83.40
2995;DHT22;35277;49.890;8.222;2022-10-22T13:19:41;23.40;83.40
2995;DHT22;35277;49.890;8.222;2022-10-22T13:22:27;23.40;83.40
2995;DHT22;35277;49.890;8.222;2022-10-22T13:24:58;23.40;83.40
2995;DHT22;35277;49.890;8.222;2022-10-22T13:27:27;23.40;83.40
2995;DHT22;35277;49.890;8.222;2022-10-22T13:29:55;23.40;83.40
2995;DHT22;35277;49.890;8.222;2022-10-22T13:32:27;23.40;83.20
2995;DHT22;35277;49.890;8.222;2022-10-22T13:34:58;23.40;83.00
2995;DHT22;35277;49.890;8.222;2022-10-22T13:37:27;23.50;82.80
2995;DHT22;35277;49.890;8.222;2022-10-22T13:39:57;23.40;82.50
2995;DHT22;35277;49.890;8.222;2022-10-22T13:42:25;23.40;82.20
2995;DHT22;35277;49.890;8.222;2022-10-22T13:44:53;23.50;82.10
2995;DHT22;35277;49.890;8.222;2022-10-22T13:47:25;23.40;81.80
2995;DHT22;35277;49.890;8.222;2022-10-22T13:49:55;23.40;81.60
2995;DHT22;35277;49.890;8.222;2022-10-22T13:52:29;23.50;81.60
2995;DHT22;35277;49.890;8.222;2022-10-22T13:54:59;23.50;81.40
2995;DHT22;35277;49.890;8.222;2022-10-22T13:57:27;23.50;81.20
2995;DHT22;35277;49.890;8.222;2022-10-22T13:59:55;23.50;81.10
2995;DHT22;35277;49.890;8.222;2022-10-22T14:02:22;23.50;80.90
2995;DHT22;35277;49.890;8.222;2022-10-22T14:04:50;23.50;80.80
2995;DHT22;35277;49.890;8.222;2022-10-22T14:07:19;23.50;80.60
2995;DHT22;35277;49.890;8.222;2022-10-22T14:09:47;23.50;80.50
2995;DHT22;35277;49.890;8.222;2022-10-22T14:12:16;23.60;80.50
2995;DHT22;35277;49.890;8.222;2022-10-22T14:14:44;23.60;80.30
2995;DHT22;35277;49.890;8.222;2022-10-22T14:17:13;23.60;80.20
2995;DHT22;35277;49.890;8.222;2022-10-22T14:19:43;23.60;80.10
2995;DHT22;35277;49.890;8.222;2022-10-22T14:22:15;23.60;80.00
2995;DHT22;35277;49.890;8.222;2022-10-22T14:24:44;23.60;80.00
2995;DHT22;35277;49.890;8.222;2022-10-22T14:27:15;23.60;80.00
2995;DHT22;35277;49.890;8.222;2022-10-22T14:29:43;23.70;80.10
2995;DHT22;35277;49.890;8.222;2022-10-22T14:32:12;23.70;80.10
2995;DHT22;35277;49.890;8.222;2022-10-22T14:34:40;23.70;80.20
2995;DHT22;35277;49.890;8.222;2022-10-22T14:37:15;23.70;80.20
2995;DHT22;35277;49.890;8.222;2022-10-22T14:39:44;23.70;80.20
2995;DHT22;35277;49.890;8.222;2022-10-22T14:42:19;23.80;80.30
2995;DHT22;35277;49.890;8.222;2022-10-22T14:44:47;23.80;80.30
2995;DHT22;35277;49.890;8.222;2022-10-22T14:47:15;23.80;80.30
2995;DHT22;35277;49.890;8.222;2022-10-22T14:49:43;23.80;80.40
2995;DHT22;35277;49.890;8.222;2022-10-22T14:52:11;23.80;80.40
2995;DHT22;35277;49.890;8.222;2022-10-22T14:54:40;23.80;80.40
2995;DHT22;35277;49.890;8.222;2022-10-22T14:57:08;23.80;80.40
2995;DHT22;35277;49.890;8.222;2022-10-22T14:59:41;23.80;80.40
2995;DHT22;35277;49.890;8.222;2022-10-22T15:02:11;23.80;80.50
2995;DHT22;35277;49.890;8.222;2022-10-22T15:04:39;23.90;80.60
2995;DHT22;35277;49.890;8.222;2022-10-22T15:07:07;23.80;80.50
2995;DHT22;35277;49.890;8.222;2022-10-22T15:09:35;23.80;80.60
2995;DHT22;35277;49.890;8.222;2022-10-22T15:12:03;23.90;80.70
2995;DHT22;35277;49.890;8.222;2022-10-22T15:14:31;23.90;80.70
2995;DHT22;35277;49.890;8.222;2022-10-22T15:17:00;23.90;80.80
2995;DHT22;35277;49.890;8.222;2022-10-22T15:19:28;23.90;80.80
2995;DHT22;35277;49.890;8.222;2022-10-22T15:21:56;23.90;80.80
2995;DHT22;35277;49.890;8.222;2022-10-22T15:24:24;23.90;80.80
2995;DHT22;35277;49.890;8.222;2022-10-22T15:26:52;23.90;80.80
2995;DHT22;35277;49.890;8.222;2022-10-22T15:29:20;23.90;80.80
2995;DHT22;35277;49.890;8.222;2022-10-22T15:31:49;23.90;80.90
2995;DHT22;35277;49.890;8.222;2022-10-22T15:34:21;23.90;80.90
2995;DHT22;35277;49.890;8.222;2022-10-22T15:36:52;23.90;81.00
2995;DHT22;35277;49.890;8.222;2022-10-22T15:39:20;23.80;81.00
2995;DHT22;35277;49.890;8.222;2022-10-22T15:41:48;23.80;81.00
2995;DHT22;35277;49.890;8.222;2022-10-22T15:44:18;23.80;81.10
2995;DHT22;35277;49.890;8.222;2022-10-22T15:46:47;23.80;81.10
2995;DHT22;35277;49.890;8.222;2022-10-22T15:49:23;23.80;81.20
2995;DHT22;35277;49.890;8.222;2022-10-22T15:51:52;23.80;81.30
2995;DHT22;35277;49.890;8.222;2022-10-22T15:54:21;23.70;81.20
2995;DHT22;35277;49.890;8.222;2022-10-22T15:56:50;23.70;81.20
2995;DHT22;35277;49.890;8.222;2022-10-22T15:59:18;23.80;81.30
2995;DHT22;35277;49.890;8.222;2022-10-22T16:01:46;23.70;81.30
2995;DHT22;35277;49.890;8.222;2022-10-22T16:04:14;23.70;81.30
2995;DHT22;35277;49.890;8.222;2022-10-22T16:06:46;23.70;81.30
2995;DHT22;35277;49.890;8.222;2022-10-22T16:09:17;23.70;81.30
2995;DHT22;35277;49.890;8.222;2022-10-22T16:11:45;23.70;81.40
2995;DHT22;35277;49.890;8.222;2022-10-22T16:14:14;23.70;81.40